createdAt,value
2018-12-22T00:00:29.803Z,6.80
2018-12-22T00:02:59.134Z,4.37
2018-12-22T00:05:27.302Z,2.47
2018-12-22T00:07:55.761Z,4.25
2018-12-22T00:10:24.053Z,4.73
2018-12-22T00:12:52.348Z,5.75
2018-12-22T00:15:20.763Z,2.47
2018-12-22T00:17:49.601Z,5.87
2018-12-22T00:20:17.818Z,4.33
2018-12-22T00:22:46.746Z,2.98
2018-12-22T00:25:14.910Z,3.20
2018-12-22T00:27:44.050Z,3.30
2018-12-22T00:30:12.615Z,3.02
2018-12-22T00:32:40.819Z,5.00
2018-12-22T00:35:09.063Z,3.77
2018-12-22T00:37:38.473Z,4.05
2018-12-22T00:40:06.864Z,3.93
2018-12-22T00:42:35.802Z,4.50
2018-12-22T00:45:04.364Z,2.55
2018-12-22T00:47:32.701Z,5.10
2018-12-22T00:50:01.583Z,4.05
2018-12-22T00:52:29.731Z,2.60
2018-12-22T00:54:57.930Z,3.72
2018-12-22T00:57:26.090Z,4.90
2018-12-22T00:59:54.296Z,4.22
2018-12-22T01:02:23.552Z,10.38
2018-12-22T01:04:53.447Z,2.83
2018-12-22T01:07:21.892Z,7.62
2018-12-22T01:09:50.124Z,4.10
2018-12-22T01:12:18.263Z,3.55
2018-12-22T01:14:46.779Z,7.87
2018-12-22T01:17:14.911Z,3.90
2018-12-22T01:19:43.052Z,3.45
2018-12-22T01:22:11.326Z,4.40
2018-12-22T01:24:39.469Z,3.40
2018-12-22T01:27:07.696Z,3.60
2018-12-22T01:29:36.047Z,2.75
2018-12-22T01:32:04.328Z,3.73
2018-12-22T01:34:33.095Z,3.47
2018-12-22T01:37:01.298Z,3.72
2018-12-22T01:39:29.565Z,5.10
2018-12-22T01:41:57.758Z,2.37
2018-12-22T01:44:25.945Z,4.60
2018-12-22T01:46:54.107Z,4.33
2018-12-22T01:49:22.268Z,4.87
2018-12-22T01:51:50.455Z,4.75
2018-12-22T01:54:18.648Z,3.17
2018-12-22T01:56:46.774Z,5.05
2018-12-22T01:59:15.339Z,4.20
2018-12-22T02:01:43.523Z,5.50
2018-12-22T02:04:11.664Z,5.65
2018-12-22T02:06:39.787Z,3.90
2018-12-22T02:09:08.382Z,6.62
2018-12-22T02:11:36.630Z,7.50
2018-12-22T02:14:04.936Z,8.50
2018-12-22T02:16:33.083Z,6.78
2018-12-22T02:19:01.263Z,5.77
2018-12-22T02:21:29.405Z,6.62
2018-12-22T02:23:57.525Z,9.98
2018-12-22T02:26:25.807Z,4.35
2018-12-22T02:28:56.769Z,8.53
2018-12-22T02:31:24.172Z,4.97
2018-12-22T02:33:52.346Z,6.85
2018-12-22T02:36:20.483Z,5.00
2018-12-22T02:38:48.973Z,5.55
2018-12-22T02:41:17.414Z,5.15
2018-12-22T02:43:45.772Z,6.33
2018-12-22T02:46:13.952Z,5.30
2018-12-22T02:48:42.096Z,4.30
2018-12-22T02:51:10.271Z,3.20
2018-12-22T02:53:38.473Z,6.10
2018-12-22T02:56:06.723Z,4.47
2018-12-22T02:58:35.251Z,3.95
2018-12-22T03:01:03.447Z,6.10
2018-12-22T03:03:31.844Z,5.70
2018-12-22T03:06:00.148Z,6.75
2018-12-22T03:08:28.608Z,5.45
2018-12-22T03:10:56.784Z,4.12
2018-12-22T03:13:24.967Z,3.58
2018-12-22T03:15:53.143Z,4.10
2018-12-22T03:18:21.309Z,5.20
2018-12-22T03:20:49.609Z,2.75
2018-12-22T03:23:17.868Z,3.40
2018-12-22T03:25:46.033Z,3.40
2018-12-22T03:28:14.313Z,4.45
2018-12-22T03:30:42.452Z,3.40
2018-12-22T03:33:10.622Z,2.50
2018-12-22T03:35:38.758Z,3.27
2018-12-22T03:38:07.000Z,2.47
2018-12-22T03:40:35.257Z,2.95
2018-12-22T03:43:03.458Z,1.67
2018-12-22T03:45:31.635Z,4.08
2018-12-22T03:48:00.114Z,3.95
2018-12-22T03:50:28.294Z,1.30
2018-12-22T03:52:56.474Z,1.42
2018-12-22T03:55:25.010Z,2.63
2018-12-22T03:57:53.204Z,2.77
2018-12-22T04:00:21.344Z,2.75
2018-12-22T04:02:49.495Z,2.42
2018-12-22T04:05:17.630Z,1.87
2018-12-22T04:07:45.801Z,1.87
2018-12-22T04:10:14.077Z,2.02
2018-12-22T04:12:42.251Z,2.05
2018-12-22T04:15:10.803Z,3.30
2018-12-22T04:17:38.945Z,2.73
2018-12-22T04:20:07.176Z,2.85
2018-12-22T04:22:35.455Z,3.67
2018-12-22T04:25:03.840Z,2.80
2018-12-22T04:27:31.977Z,2.43
2018-12-22T04:30:00.458Z,1.70
2018-12-22T04:32:28.776Z,3.25
2018-12-22T04:34:57.036Z,2.47
2018-12-22T04:37:25.534Z,1.77
2018-12-22T04:39:53.674Z,1.10
2018-12-22T04:42:21.964Z,2.83
2018-12-22T04:44:50.149Z,3.02
2018-12-22T04:47:18.269Z,4.05
2018-12-22T04:49:46.400Z,2.40
2018-12-22T04:52:14.669Z,1.50
2018-12-22T04:54:42.847Z,0.95
2018-12-22T04:57:11.116Z,3.03
2018-12-22T04:59:43.105Z,0.97
2018-12-22T05:02:10.550Z,3.83
2018-12-22T05:04:38.945Z,3.02
2018-12-22T05:07:07.573Z,2.67
2018-12-22T05:09:35.769Z,1.07
2018-12-22T05:12:03.974Z,2.20
2018-12-22T05:14:32.104Z,0.55
2018-12-22T05:17:00.389Z,1.67
2018-12-22T05:19:28.553Z,2.27
2018-12-22T05:21:56.734Z,2.47
2018-12-22T05:24:25.040Z,1.87
2018-12-22T05:26:53.391Z,2.97
2018-12-22T05:29:21.537Z,5.40
2018-12-22T05:31:49.846Z,5.05
2018-12-22T05:34:18.290Z,2.05
2018-12-22T05:36:46.413Z,2.00
2018-12-22T05:39:15.371Z,2.80
2018-12-22T05:41:44.457Z,2.43
2018-12-22T05:44:12.615Z,3.05
2018-12-22T05:46:40.928Z,1.60
2018-12-22T05:49:09.331Z,3.20
2018-12-22T05:51:37.695Z,3.02
2018-12-22T05:54:05.834Z,1.73
2018-12-22T05:56:34.072Z,1.30
2018-12-22T05:59:02.261Z,3.30
2018-12-22T06:01:30.397Z,3.20
2018-12-22T06:03:58.979Z,1.40
2018-12-22T06:06:27.136Z,1.70
2018-12-22T06:08:55.297Z,0.87
2018-12-22T06:11:23.430Z,2.63
2018-12-22T06:13:51.568Z,1.90
2018-12-22T06:16:19.727Z,4.43
2018-12-22T06:18:48.170Z,4.62
2018-12-22T06:21:16.491Z,2.70
2018-12-22T06:23:44.652Z,2.50
2018-12-22T06:26:12.903Z,2.35
2018-12-22T06:28:41.088Z,3.08
2018-12-22T06:31:09.227Z,3.67
2018-12-22T06:33:38.010Z,3.12
2018-12-22T06:36:06.168Z,4.63
2018-12-22T06:38:34.313Z,2.17
2018-12-22T06:41:02.753Z,4.08
2018-12-22T06:43:30.958Z,5.42
2018-12-22T06:45:59.082Z,3.42
2018-12-22T06:48:27.688Z,3.75
2018-12-22T06:50:55.802Z,5.37
2018-12-22T06:53:24.062Z,5.95
2018-12-22T06:55:52.233Z,5.43
2018-12-22T06:58:20.620Z,3.83
2018-12-22T07:00:48.791Z,3.12
2018-12-22T07:03:16.940Z,5.53
2018-12-22T07:05:45.050Z,6.15
2018-12-22T07:08:13.171Z,11.20
2018-12-22T07:10:41.319Z,6.95
2018-12-22T07:13:09.516Z,3.92
2018-12-22T07:15:37.635Z,9.90
2018-12-22T07:18:05.794Z,8.40
2018-12-22T07:20:33.918Z,8.57
2018-12-22T07:23:02.076Z,4.50
2018-12-22T07:25:30.198Z,10.07
2018-12-22T07:27:58.328Z,8.45
2018-12-22T07:30:26.681Z,5.63
2018-12-22T07:32:57.217Z,6.28
2018-12-22T07:35:25.435Z,10.60
2018-12-22T07:37:53.917Z,5.00
2018-12-22T07:40:22.038Z,6.20
2018-12-22T07:42:50.291Z,7.55
2018-12-22T07:45:18.891Z,8.23
2018-12-22T07:47:47.038Z,5.50
2018-12-22T07:50:15.274Z,8.85
2018-12-22T07:52:51.461Z,6.97
2018-12-22T07:55:13.789Z,6.40
2018-12-22T07:57:41.995Z,5.90
2018-12-22T08:00:10.149Z,6.28
2018-12-22T08:02:38.278Z,6.07
2018-12-22T08:05:06.524Z,7.20
2018-12-22T08:07:34.829Z,9.50
2018-12-22T08:10:03.090Z,5.47
2018-12-22T08:12:31.286Z,5.62
2018-12-22T08:14:59.428Z,7.12
2018-12-22T08:17:27.692Z,7.22
2018-12-22T08:19:55.984Z,10.10
2018-12-22T08:22:24.695Z,6.03
2018-12-22T08:24:53.017Z,6.27
2018-12-22T08:27:21.193Z,7.57
2018-12-22T08:29:49.414Z,7.97
2018-12-22T08:32:17.555Z,11.00
2018-12-22T08:34:45.855Z,8.17
2018-12-22T08:37:13.996Z,8.60
2018-12-22T08:39:42.177Z,7.65
2018-12-22T08:42:10.766Z,8.45
2018-12-22T08:44:39.027Z,5.53
2018-12-22T08:47:07.299Z,11.08
2018-12-22T08:49:35.422Z,8.53
2018-12-22T08:52:03.788Z,10.50
2018-12-22T08:54:32.063Z,12.85
2018-12-22T08:57:00.217Z,10.30
2018-12-22T08:59:28.372Z,12.73
2018-12-22T09:01:56.828Z,8.98
2018-12-22T09:04:24.960Z,7.33
2018-12-22T09:06:53.096Z,7.70
2018-12-22T09:09:21.385Z,9.80
2018-12-22T09:11:49.619Z,6.00
2018-12-22T09:14:17.749Z,10.80
2018-12-22T09:16:45.941Z,8.50
2018-12-22T09:19:14.074Z,9.43
2018-12-22T09:21:42.341Z,8.07
2018-12-22T09:24:10.619Z,5.62
2018-12-22T09:26:39.078Z,4.80
2018-12-22T09:29:07.385Z,7.97
2018-12-22T09:31:35.559Z,7.58
2018-12-22T09:34:03.744Z,10.48
2018-12-22T09:36:31.973Z,4.83
2018-12-22T09:39:00.361Z,5.58
2018-12-22T09:41:28.503Z,3.67
2018-12-22T09:43:56.633Z,7.17
2018-12-22T09:46:24.825Z,4.73
2018-12-22T09:48:53.044Z,6.65
2018-12-22T09:51:21.439Z,5.10
2018-12-22T09:53:49.576Z,4.22
2018-12-22T09:56:17.677Z,5.53
2018-12-22T09:58:45.810Z,2.55
2018-12-22T10:01:13.979Z,3.00
2018-12-22T10:03:42.387Z,4.92
2018-12-22T10:06:10.531Z,2.43
2018-12-22T10:08:38.729Z,4.60
2018-12-22T10:11:06.865Z,4.40
2018-12-22T10:13:35.007Z,1.83
2018-12-22T10:16:03.475Z,2.80
2018-12-22T10:18:31.620Z,3.87
2018-12-22T10:20:59.741Z,3.10
2018-12-22T10:23:27.908Z,3.40
2018-12-22T10:25:56.043Z,3.73
2018-12-22T10:28:24.549Z,3.12
2018-12-22T10:30:52.674Z,2.23
2018-12-22T10:33:20.901Z,2.07
2018-12-22T10:35:49.052Z,3.10
2018-12-22T10:38:17.171Z,1.70
2018-12-22T10:40:45.314Z,3.08
2018-12-22T10:43:13.450Z,2.70
2018-12-22T10:45:41.637Z,2.33
2018-12-22T10:48:09.779Z,2.77
2018-12-22T10:50:37.980Z,1.73
2018-12-22T10:53:06.483Z,5.42
2018-12-22T10:55:34.611Z,2.43
2018-12-22T10:58:02.812Z,2.27
2018-12-22T11:00:30.953Z,1.47
2018-12-22T11:02:59.126Z,2.83
2018-12-22T11:05:27.660Z,4.17
2018-12-22T11:07:55.786Z,2.93
2018-12-22T11:10:25.407Z,3.80
2018-12-22T11:12:56.158Z,2.43
2018-12-22T11:15:24.281Z,4.40
2018-12-22T11:17:52.729Z,6.28
2018-12-22T11:20:20.924Z,3.98
2018-12-22T11:22:49.130Z,4.30
2018-12-22T11:25:26.371Z,5.93
2018-12-22T11:27:54.571Z,4.03
2018-12-22T11:30:27.990Z,3.07
2018-12-22T11:32:56.181Z,4.07
2018-12-22T11:35:24.314Z,6.43
2018-12-22T11:37:52.448Z,4.73
2018-12-22T11:40:20.570Z,5.40
2018-12-22T11:42:48.715Z,4.87
2018-12-22T11:45:16.829Z,4.63
2018-12-22T11:48:51.886Z,4.20
2018-12-22T11:51:20.019Z,4.35
2018-12-22T11:53:48.231Z,4.03
2018-12-22T11:56:16.452Z,7.42
2018-12-22T11:58:44.672Z,5.53
2018-12-22T12:01:12.824Z,3.93
2018-12-22T12:03:40.956Z,7.42
2018-12-22T12:06:09.084Z,3.60
2018-12-22T12:08:37.216Z,6.13
2018-12-22T12:11:05.328Z,6.00
2018-12-22T12:13:33.939Z,7.30
2018-12-22T12:16:23.915Z,6.22
2018-12-22T12:18:58.774Z,4.08
2018-12-22T12:21:26.916Z,3.05
2018-12-22T12:23:55.206Z,6.00
2018-12-22T12:26:23.405Z,4.40
2018-12-22T12:28:51.529Z,9.23
2018-12-22T12:31:19.656Z,9.07
2018-12-22T12:33:47.770Z,5.55
2018-12-22T12:36:15.966Z,6.25
2018-12-22T12:38:44.088Z,9.48
2018-12-22T12:41:12.215Z,9.33
2018-12-22T12:43:40.342Z,9.05
2018-12-22T12:46:08.469Z,9.43
2018-12-22T12:48:36.875Z,5.97
2018-12-22T12:51:05.154Z,5.77
2018-12-22T12:53:33.295Z,8.25
2018-12-22T12:56:02.425Z,6.45
2018-12-22T12:58:30.544Z,9.45
2018-12-22T13:00:58.865Z,4.87
2018-12-22T13:03:27.014Z,6.60
2018-12-22T13:05:55.132Z,5.70
2018-12-22T13:08:23.299Z,4.03
2018-12-22T13:10:51.428Z,6.15
2018-12-22T13:13:28.642Z,8.20
2018-12-22T13:15:56.784Z,3.75
2018-12-22T13:18:24.932Z,6.78
2018-12-22T13:20:53.232Z,6.05
2018-12-22T13:23:21.352Z,5.77
2018-12-22T13:25:49.572Z,5.75
2018-12-22T13:28:17.703Z,5.70
2018-12-22T13:30:45.819Z,4.73
2018-12-22T13:33:14.324Z,7.17
2018-12-22T13:35:42.494Z,3.90
2018-12-22T13:38:10.625Z,5.45
2018-12-22T13:40:38.730Z,7.13
2018-12-22T13:43:06.886Z,8.33
2018-12-22T13:45:35.274Z,8.05
2018-12-22T13:48:03.756Z,6.80
2018-12-22T13:50:32.382Z,4.75
2018-12-22T13:53:00.650Z,5.15
2018-12-22T13:55:28.768Z,2.87
2018-12-22T13:57:56.937Z,2.20
2018-12-22T14:00:25.505Z,3.45
2018-12-22T14:02:53.925Z,3.47
2018-12-22T14:05:22.423Z,2.90
2018-12-22T14:07:50.564Z,5.45
2018-12-22T14:10:18.709Z,3.03
2018-12-22T14:12:47.113Z,5.25
2018-12-22T14:15:17.990Z,2.98
2018-12-22T14:17:55.575Z,3.17
2018-12-22T14:20:24.998Z,7.47
2018-12-22T14:22:53.991Z,5.00
2018-12-22T14:25:28.061Z,4.50
2018-12-22T14:27:56.185Z,1.82
2018-12-22T14:30:24.328Z,5.60
2018-12-22T14:32:52.491Z,4.72
2018-12-22T14:35:34.178Z,2.92
2018-12-22T14:38:03.050Z,2.60
2018-12-22T14:40:31.212Z,3.10
2018-12-22T14:42:59.404Z,2.47
2018-12-22T14:45:27.540Z,4.37
2018-12-22T14:47:55.645Z,1.90
2018-12-22T14:50:24.088Z,3.87
2018-12-22T14:52:52.265Z,8.30
2018-12-22T14:55:20.544Z,5.40
2018-12-22T14:57:53.284Z,3.00
2018-12-22T15:00:21.484Z,3.12
2018-12-22T15:02:49.718Z,2.72
2018-12-22T15:05:17.956Z,6.72
2018-12-22T15:07:46.091Z,5.62
2018-12-22T15:10:14.313Z,4.97
2018-12-22T15:12:42.440Z,6.70
2018-12-22T15:15:10.839Z,5.28
2018-12-22T15:17:39.382Z,5.42
2018-12-22T15:20:11.559Z,6.70
2018-12-22T15:22:39.922Z,4.83
2018-12-22T15:25:08.909Z,4.90
2018-12-22T15:27:37.041Z,6.55
2018-12-22T15:30:06.989Z,5.55
2018-12-22T15:32:43.768Z,3.53
2018-12-22T15:35:05.902Z,4.47
2018-12-22T15:37:34.050Z,2.30
2018-12-22T15:40:09.053Z,3.47
2018-12-22T15:42:37.238Z,5.70
2018-12-22T15:45:08.563Z,5.58
2018-12-22T15:47:36.689Z,4.87
2018-12-22T15:50:06.934Z,6.72
2018-12-22T15:52:35.071Z,7.17
2018-12-22T15:55:03.391Z,3.08
2018-12-22T15:57:31.851Z,7.83
2018-12-22T15:59:59.988Z,3.80
2018-12-22T16:02:28.128Z,5.28
2018-12-22T16:04:56.351Z,10.13
2018-12-22T16:07:24.487Z,4.72
2018-12-22T16:09:52.651Z,5.47
2018-12-22T16:12:20.791Z,3.40
2018-12-22T16:14:48.921Z,4.80
2018-12-22T16:17:17.137Z,5.03
2018-12-22T16:19:45.265Z,5.53
2018-12-22T16:22:13.615Z,6.20
2018-12-22T16:24:41.854Z,5.97
2018-12-22T16:27:10.080Z,5.07
2018-12-22T16:29:41.198Z,6.12
2018-12-22T16:32:10.257Z,8.78
2018-12-22T16:34:38.906Z,7.70
2018-12-22T16:37:07.142Z,5.43
2018-12-22T16:39:35.500Z,8.13
2018-12-22T16:42:03.703Z,7.17
2018-12-22T16:44:31.925Z,4.17
2018-12-22T16:47:00.452Z,6.27
2018-12-22T16:49:28.653Z,5.50
2018-12-22T16:51:56.829Z,6.53
2018-12-22T16:54:26.009Z,9.38
2018-12-22T16:56:54.223Z,7.03
2018-12-22T16:59:22.471Z,6.90
2018-12-22T17:01:59.588Z,8.08
2018-12-22T17:04:27.731Z,9.48
2018-12-22T17:06:56.730Z,6.80
2018-12-22T17:09:24.893Z,8.47
2018-12-22T17:11:53.076Z,5.63
2018-12-22T17:14:21.369Z,6.73
2018-12-22T17:16:50.025Z,4.27
2018-12-22T17:19:18.210Z,5.22
2018-12-22T17:21:53.426Z,7.42
2018-12-22T17:24:35.115Z,6.10
2018-12-22T17:27:03.353Z,7.13
2018-12-22T17:29:31.489Z,6.05
2018-12-22T17:31:59.814Z,4.83
2018-12-22T17:34:28.219Z,6.67
2018-12-22T17:36:56.417Z,4.55
2018-12-22T17:39:24.690Z,3.15
2018-12-22T17:41:52.970Z,4.30
2018-12-22T17:44:21.234Z,4.93
2018-12-22T17:46:49.418Z,4.95
2018-12-22T17:49:17.862Z,6.83
2018-12-22T17:51:46.076Z,5.95
2018-12-22T17:54:14.204Z,6.07
2018-12-22T17:56:42.695Z,4.85
2018-12-22T17:59:10.814Z,15.03
2018-12-22T18:01:39.003Z,7.83
2018-12-22T18:04:07.152Z,6.50
2018-12-22T18:06:35.312Z,6.65
2018-12-22T18:09:05.175Z,5.97
2018-12-22T18:11:33.404Z,6.33
2018-12-22T18:14:01.541Z,7.90
2018-12-22T18:16:29.674Z,4.20
2018-12-22T18:18:57.875Z,6.73
2018-12-22T18:21:25.997Z,9.55
2018-12-22T18:23:54.446Z,5.30
2018-12-22T18:26:22.584Z,7.33
2018-12-22T18:28:50.725Z,5.13
2018-12-22T18:31:19.463Z,6.92
2018-12-22T18:33:47.650Z,5.90
2018-12-22T18:36:16.008Z,6.37
2018-12-22T18:38:44.247Z,5.13
2018-12-22T18:41:12.461Z,9.43
2018-12-22T18:43:42.086Z,6.00
2018-12-22T18:46:10.380Z,8.67
2018-12-22T18:48:38.528Z,7.93
2018-12-22T18:51:07.006Z,8.47
2018-12-22T18:53:35.218Z,10.03
2018-12-22T18:56:03.394Z,8.40
2018-12-22T18:58:31.839Z,8.63
2018-12-22T19:00:59.961Z,6.22
2018-12-22T19:03:28.228Z,9.00
2018-12-22T19:05:57.175Z,8.43
2018-12-22T19:08:25.377Z,7.20
2018-12-22T19:10:56.502Z,8.75
2018-12-22T19:13:24.647Z,7.42
2018-12-22T19:15:52.780Z,6.40
2018-12-22T19:18:20.984Z,8.95
2018-12-22T19:20:50.950Z,6.45
2018-12-22T19:23:20.466Z,6.73
2018-12-22T19:25:48.741Z,6.12
2018-12-22T19:28:17.007Z,9.53
2018-12-22T19:30:45.187Z,11.37
2018-12-22T19:33:13.372Z,11.77
2018-12-22T19:35:41.628Z,8.07
2018-12-22T19:38:10.183Z,12.18
2018-12-22T19:40:38.309Z,11.57
2018-12-22T19:43:06.463Z,10.15
2018-12-22T19:45:34.643Z,8.15
2018-12-22T19:48:02.852Z,9.43
2018-12-22T19:50:31.074Z,6.62
2018-12-22T19:52:59.840Z,9.27
2018-12-22T19:55:28.158Z,11.83
2018-12-22T19:57:56.309Z,8.23
2018-12-22T20:00:24.452Z,11.20
2018-12-22T20:02:52.581Z,10.43
2018-12-22T20:05:20.734Z,14.00
2018-12-22T20:07:48.906Z,10.00
2018-12-22T20:10:17.084Z,10.23
2018-12-22T20:12:46.049Z,13.08
2018-12-22T20:15:14.168Z,10.43
2018-12-22T20:17:42.309Z,7.03
2018-12-22T20:20:10.880Z,16.45
2018-12-22T20:22:39.089Z,10.93
2018-12-22T20:25:07.366Z,11.27
2018-12-22T20:27:35.544Z,9.18
2018-12-22T20:30:04.020Z,10.87
2018-12-22T20:32:32.177Z,9.35
2018-12-22T20:35:00.338Z,11.83
2018-12-22T20:37:28.526Z,7.93
2018-12-22T20:39:56.700Z,10.08
2018-12-22T20:42:25.208Z,10.03
2018-12-22T20:44:53.345Z,10.03
2018-12-22T20:47:21.622Z,15.53
2018-12-22T20:49:50.209Z,11.67
2018-12-22T20:52:18.370Z,9.03
2018-12-22T20:54:47.038Z,9.13
2018-12-22T20:57:15.242Z,10.67
2018-12-22T20:59:43.420Z,7.33
2018-12-22T21:02:12.375Z,11.83
2018-12-22T21:04:40.582Z,9.23
2018-12-22T21:07:08.807Z,8.00
2018-12-22T21:09:36.961Z,10.27
2018-12-22T21:12:05.172Z,14.05
2018-12-22T21:14:33.302Z,8.90
2018-12-22T21:17:02.035Z,10.75
2018-12-22T21:19:30.148Z,10.18
2018-12-22T21:21:58.323Z,10.47
2018-12-22T21:24:26.861Z,9.38
2018-12-22T21:26:54.979Z,8.58
2018-12-22T21:29:23.142Z,8.47
2018-12-22T21:31:51.694Z,13.47
2018-12-22T21:34:28.137Z,8.95
2018-12-22T21:36:50.023Z,7.65
2018-12-22T21:39:18.190Z,8.03
2018-12-22T21:41:46.456Z,10.13
2018-12-22T21:44:15.739Z,11.37
2018-12-22T21:46:43.932Z,14.68
2018-12-22T21:49:13.066Z,9.47
2018-12-22T21:51:41.561Z,13.45
2018-12-22T21:54:09.753Z,12.27
2018-12-22T21:56:37.907Z,13.00
2018-12-22T21:59:06.715Z,8.03
2018-12-22T22:01:34.928Z,11.83
2018-12-22T22:04:03.061Z,9.17
2018-12-22T22:06:31.180Z,9.07
2018-12-22T22:08:59.441Z,8.10
2018-12-22T22:11:27.893Z,12.03
2018-12-22T22:13:56.046Z,13.37
2018-12-22T22:16:24.166Z,7.90
2018-12-22T22:18:52.298Z,11.57
2018-12-22T22:21:20.424Z,9.23
2018-12-22T22:23:48.602Z,10.10
2018-12-22T22:26:16.755Z,10.63
2018-12-22T22:28:44.921Z,11.10
2018-12-22T22:31:13.104Z,9.50
2018-12-22T22:33:41.276Z,13.30
2018-12-22T22:36:09.451Z,9.97
2018-12-22T22:38:37.903Z,10.07
2018-12-22T22:41:06.048Z,11.15
2018-12-22T22:43:34.176Z,13.70
2018-12-22T22:46:02.627Z,7.92
2018-12-22T22:48:30.823Z,12.10
2018-12-22T22:50:59.067Z,11.13
2018-12-22T22:53:27.284Z,10.58
2018-12-22T22:55:55.440Z,9.80
2018-12-22T22:58:23.606Z,7.70
2018-12-22T23:00:51.763Z,10.43
2018-12-22T23:03:19.894Z,8.63
2018-12-22T23:05:48.041Z,17.27
2018-12-22T23:08:16.493Z,10.27
2018-12-22T23:10:44.611Z,12.80
2018-12-22T23:13:12.755Z,8.17
2018-12-22T23:15:40.891Z,15.47
2018-12-22T23:18:09.112Z,9.83
2018-12-22T23:20:37.279Z,9.70
2018-12-22T23:23:05.474Z,16.20
2018-12-22T23:25:33.604Z,13.13
2018-12-22T23:28:01.744Z,12.60
2018-12-22T23:30:29.861Z,9.23
2018-12-22T23:32:58.037Z,10.03
2018-12-22T23:35:26.170Z,11.30
2018-12-22T23:37:54.391Z,8.00
2018-12-22T23:40:24.071Z,8.03
2018-12-22T23:42:52.290Z,5.60
2018-12-22T23:45:20.443Z,9.30
2018-12-22T23:47:48.736Z,12.77
2018-12-22T23:50:20.074Z,11.20
2018-12-22T23:52:48.556Z,9.23
2018-12-22T23:55:16.942Z,11.07
2018-12-22T23:57:45.105Z,10.43
